Terminal Aerodrome Forecast
Issued by NWS Central Illinois

Home | Current Version | Previous Version | Text Only | Print | Product List | Glossary On
Versions: 1 2 3 4 5 6 7 8 9 10 11 12 13 14 15 16 17 18 19 20 21 22 23 24 25 26 27 28
055
FTUS43 KILX 291352 AAA
TAFPIA
TAF AMD
KPIA 291352Z 2914/3012 05015G23KT 6SM -SHRA BR SCT013 OVC070
      TEMPO 2914/2918 4SM -SHRA BR BKN013 OVC050
     FM291800 06014G21KT 2SM -SHRA BR VCTS SCT005 OVC012CB
     FM292000 08011G18KT 2SM TSRA BR BKN004 OVC012CB
     FM300000 04012KT 2SM SHRA OVC008
     FM300600 07010KT 2SM SHRA OVC003
     FM301000 07009KT 2SM SHRA OVC008=

USA.gov is the U.S. government's official web portal to all federal, state and local government web resources and services.